KNMI Weerbulletins

Hier vind u de KMNI verwachtingen en de waarnemingen

Bron: KNMI website
Laatste update op 22-10-2020 om 10:47
ZCZC
FBNL50 EHDB 220829 COR
WEERBULLETIN VOOR DE LUCHTVAART - COR
.
GELDIG 220900/221500 UTC
.
SITUATIE: TUSSEN EEN LAGEDRUKGEBIED BOVEN DE NOORDZEE EN SCANDINAVIE
EN HOGE DRUK BOVEN ZUID-EUROPA IS DE STROMING ZUIDWESTELIJK. DE
OPBOUW IS ONSTABIEL TOT CIRCA 3000 VT, IN HET NOORDWESTELIJK
KUSTGEBIED LOKAAL TOT CIRCA FL100.
.
SIGNIFICANT WEER: IN HET NOORDWESTELIJK KUSTGEBIED MATIGE TURBULENTIE
EN KLEINE KANS OP EEN GEISOLEERDE LICHTE BUI. IN DE TWEEDE HELFT VAN
DE PERIODE IN HET ZUIDOOSTEN ENKELE GEISOLEERDE, MOGELIJK GECLUSTERDE
MATIGE REGENBUIEN, TEGEN HET EINDE VAN DE PERIODE MOGELIJK MET
ONWEER.
.
WIND: ZUIDWEST 10-15 KN, AAN ZEE EN BOVEN HET IJSSELMEER 15-21 KN,
AAN DE NOORDWESTKUST 22-28 KN.
.
BEWOLKING: FEW/SCT, VOORAL IN HET ZUIDOOSTEN OOK BKN, CU/SC 2000-3000
VT, TOPPEN TOT 5000 VT. BIJ EEN LICHTE BUI FEW TCU 2000 VT EN
MOGELIJK FEW/SCT SC 1000-1500 VT, TOPPEN TOT FL100. BIJ EEN MATIGE
BUI SCT CB 2000 VT, TOPPEN BOVEN FL100.
.
ZICHT: MEER DAN 10 KM. IN EEN LICHTE BUI MOGELIJK 5-8 KM. IN EEN
MATIGE BUI 5-8 KM, MOGELIJK 3-5 KM.
.
NULGRADEN NIVEAU: FL080-FL090.
.
HOOGTEWINDEN EN TEMPERATUREN:
       09 UTC:    15 UTC:
0500VT 220/20-35 +13 220/10-30 +16
1500VT 230/25-40 +11 220/15-35 +13
3000VT 240/30-45 +11 240/20-35 +10
FL 050 230/40-50 +06 240/30-45 +06
FL 100 230/50    -02 240/40-55 -03
LAAGSTE WINDSNELHEID IN HET ZUIDOOSTEN, HOOGSTE IN HET NOORDWESTEN.
.
THERMIEK: MATIG, TEGEN HET EINDE VAN DE PERIODE UITDOVEND. IN HET
NOORDWESTELIJK KUSTGEBIED VERWAAID.
.
MAX. TEMPERATUUR: VAN 15 GRADEN CELSIUS IN HET NOORDWESTEN TOT 19
GRADEN IN HET ZUIDOOSTEN.
.
VOORUITZICHTEN VOOR DE PERIODE VAN 221500/222100: GEEN SIGNIFICANTE
VERANDERING.
.
DAGLICHTPERIODE: 06.03 TOT 16.45 UTC.=
NNNN
Bron: KNMI website
Laatste update op 22-10-2020 om 10:47
ZCZC
FC220500 EHGR     GILZE-RIJEN/GILZE-RIJEN   NLD   14 m.
TAF EHGR 220402Z 2205/2217 22010KT 9999 SCT030 BKN180=
ZCZC
FC220500 EHKD     DE KOOY/DE KOOY   NLD   1 m.
TAF EHKD 220423Z 2205/2217 21018G30KT 9999 FEW013 BKN017
    BECMG 2211/2213 SCT020=
ZCZC
FC220500 EHLW     LEEUWARDEN/LEEUWARDEN   NLD   1 m.
TAF EHLW 220418Z 2205/2217 21015G25KT 9999 FEW013 BKN017
    BECMG 2211/2213 BKN020=
ZCZC
FC220500 EHVK     VOLKEL/VOLKEL   NLD   21 m.
TAF EHVK 220446Z 2205/2217 22009KT 9999 SCT025
    TEMPO 2208/2214 22010G20KT=
ZCZC
FC220500 EHWO RRA WOENSDRECHT/WOENSDRECHT   NLD   19 m.
TAF EHWO 220402Z 2205/2217 22010KT 9999 SCT030=
ZCZC
FT220500 EHAM     AMSTERDAM/SCHIPHOL   NLD   -3 m.
TAF EHAM 220444Z 2206/2312 22014KT 9999 FEW022
    BECMG 2214/2217 22007KT
    PROB40 2303/2310 0500 FG BKN001=
ZCZC
FT220500 EHBK     MAASTRICHT/MAASTRICHT-AACHEN   NLD   114 m.
TAF EHBK 220516Z 2206/2312 21010KT 9999 SCT045
    PROB40 TEMPO 2212/2223 6000 SHRA FEW020CB BKN025
    PROB30 TEMPO 2213/2220 24015G22KT 4000 SHRA TSRA SCT020CB
    BKN025
    BECMG 2215/2218 24006KT
    PROB30 TEMPO 2300/2306 4000 BR BKN006=
ZCZC
FT220500 EHGG     GRONINGEN/EELDE   NLD   5 m.
TAF COR EHGG 220519Z 2206/2312 22015KT 9999 SCT030
    BECMG 2300/2303 22005KT 4000 BR
    TEMPO 2300/2311 SCT004 BKN006
    PROB40 2301/2309 0600 FG BKN001
    BECMG 2307/2309 9999 NSW=
ZCZC
FT220500 EHLE     LELYSTAD/LELYSTAD   NLD   -3 m.
TAF EHLE 220444Z 2206/2312 22014KT 9999 FEW022
    BECMG 2214/2217 22007KT
    PROB40 2303/2310 0400 FG BKN001=
ZCZC
FT220500 EHRD     ROTTERDAM/THE HAGUE AIRPORT   NLD   -5 m.
TAF EHRD 220444Z 2206/2312 22014KT 9999 FEW022
    BECMG 2214/2217 22007KT
    PROB40 2302/2310 0300 FG BKN001=
ZCZC
FT220500 EHEH     EINDHOVEN/EINDHOVEN   NLD   22 m.
TAF EHEH 220527Z 2206/2312 21010G20KT 9999 SCT035 BKN055
    BECMG 2212/2214 22007KT
    TEMPO 2212/2218 SCT018 BKN030
    PROB40 TEMPO 2213/2217 4500 -SHRA SCT015 SCT018CB BKN025
    BECMG 2300/2302 20004KT 4000 BR
    PROB30 TEMPO 2303/2308 0800 FG BKN004=
Bron: KNMI website
Laatste update op 22-10-2020 om 10:47
ZCZC
SA220755 EHFS     VLISSINGEN AWS   NLD   8 m.
METAR EHFS 220755Z AUTO 19014KT 9999 NCD 13/11 Q1010=
ZCZC
SA220755 EHSG     BSA   NLD   43 m.
METAR EHSG 220755Z AUTO 21017KT 110V250 //// // FEW012/// 14/12 Q1009
RE//=
ZCZC
SA220825 EHKD     DE KOOY/DE KOOY   NLD   1 m.
METAR EHKD 220825Z AUTO 22015KT 190V260 9999 FEW015 SCT020 BKN027
14/12 Q1007
WHT NOSIG=
ZCZC
SA220825 EHFD     F3-FB-1   NLD   50 m.
METAR EHFD 220825Z AUTO /////KT 9999 FEW008/// SCT011/// BKN013///
13/11 Q1002=
ZCZC
SA220825 EHAM     AMSTERDAM/SCHIPHOL   NLD   -3 m.
METAR EHAM 220825Z 21012KT 9999 FEW011 14/12 Q1009 NOSIG=
ZCZC
SA220825 EHVL     VLIELAND   NLD   10 m.
METAR EHVL 220825Z AUTO 24026KT 9999 BKN038 14/11 Q1006 BLU=
ZCZC
SA220825 EHJR     K13-A   NLD   37 m.
METAR EHJR 220825Z AUTO 00000KT //// // ///////// 14/10 Q1006 RE//
W14/H25=
ZCZC
SA220825 EHLE     LELYSTAD/LELYSTAD   NLD   -3 m.
METAR EHLE 220825Z AUTO 21013KT 9999 NCD 14/11 Q1009 NOSIG=
ZCZC
SA220825 EHLW     LEEUWARDEN/LEEUWARDEN   NLD   1 m.
METAR EHLW 220825Z AUTO 22014KT 170V240 9999 NCD 14/12 Q1007
BLU NOSIG=
ZCZC
SA220825 EHDL     ARNHEM/DEELEN   NLD   48 m.
METAR EHDL 220825Z AUTO VRB13KT 9999 ////// 14/12 Q1010 RE// BLU=
ZCZC
SA220825 EHGG     GRONINGEN/EELDE   NLD   5 m.
METAR EHGG 220825Z AUTO 21014KT 180V240 9999 SCT013 BKN015 BKN020
14/12 Q1008 NOSIG=
ZCZC
SA220825 EHSC     LICHTEILAND GOEREE   NLD   22 m.
METAR EHSC 220825Z AUTO 21023KT 9999 ///////// 13/12 Q1009 W14/H14=
ZCZC
SA220825 EHSA     EURO PLATFORM   NLD   19 m.
METAR EHSA 220825Z AUTO 21023KT 9999 ///////// 15/12 Q1009 W13/H18=
ZCZC
SA220825 EHWO     WOENSDRECHT/WOENSDRECHT   NLD   19 m.
METAR EHWO 220825Z AUTO 21008KT 170V260 9999 FEW068 BKN092 OVC220
15/11 Q1010
BLU NOSIG=
ZCZC
SA220825 EHRD     ROTTERDAM/THE HAGUE AIRPORT   NLD   -5 m.
METAR EHRD 220825Z AUTO 20014KT 9999 NCD 14/11 Q1009 NOSIG=
ZCZC
SA220825 EHGR     GILZE-RIJEN/GILZE-RIJEN   NLD   14 m.
METAR EHGR 220825Z AUTO 20009KT 160V250 9999 OVC200 15/11 Q1011
BLU NOSIG=
ZCZC
SA220825 EHEH     EINDHOVEN/EINDHOVEN   NLD   22 m.
METAR EHEH 220825Z AUTO 20009KT 9999 NCD 15/13 Q1011
BLU NOSIG=
ZCZC
SA220825 EHVK     VOLKEL/VOLKEL   NLD   21 m.
METAR EHVK 220825Z AUTO 21011KT 180V250 9999 FEW230 15/12 Q1011
BLU TEMPO 2208G18KT=
ZCZC
SA220825 EHBK     MAASTRICHT/MAASTRICHT-AACHEN   NLD   114 m.
METAR EHBK 220825Z AUTO 20011KT 180V240 9999 BKN018 OVC022 16/13
Q1012 NOSIG=
ZCZC
SA220825 EHFZ     F16-A   NLD   43 m.
METAR EHFZ 220825Z NIL=
ZCZC
SA220825 EHKV     K14-FA-1C   NLD   41 m.
METAR EHKV 220825Z AUTO 24036KT 9999 FEW016 BKN036 14/10 Q1006=
ZCZC
SA220825 EHMG     L9-FF-1   NLD   44 m.
METAR EHMG 220825Z AUTO 24031KT 9999 FEW017 SCT021 BKN031 14/10
Q1006=
ZCZC
SA220825 EHMA     AWG-1   NLD   40 m.
METAR EHMA 220825Z AUTO 20021KT 9999 FEW014 SCT016 BKN030 14/11
Q1006=
ZCZC
SA220825 EHDV     D15-FA-1   NLD   42 m.
METAR EHDV 220825Z AUTO 22024KT 9999 FEW009/// SCT012/// BKN025///
13/11 Q1002=
ZCZC
SA220825 EHAK     A12-CPP   NLD   48 m.
METAR EHAK 220825Z AUTO 25029KT 9999 SCT018/// BKN022/// BKN026///
12/08 Q1000=
ZCZC
SA220825 EHQE     HOORN-A   NLD   50 m.
METAR EHQE 220825Z AUTO 20033KT //// // ////// 15/11 Q1006 RE//=
ZCZC
SA220825 EHJA     J6-A   NLD   45 m.
METAR EHJA 220825Z AUTO 21029KT 9999 FEW010/// SCT014/// BKN019///
13/11 Q1003=
ZCZC
SA220825 EHPG     P11-B   NLD   41 m.
METAR EHPG 220825Z AUTO 24029KT 8000 FEW016 SCT021 15/11 Q1007=
ZCZC
SA220825 EHHW     BUITENGAATS/BG-OHVS2      42 m.
METAR EHHW 220825Z AUTO 25029KT 9999 FEW001/// SCT022/// BKN026///
14/11 Q1006=